AirNav   Pilot Hours Calculator
 
 932 users online  

6NC9 Moss Hill Airport
Kinston, North Carolina, USA

GOING TO KINSTON?


FAA INFORMATION EFFECTIVE 01 DECEMBER 2022

Location

FAA Identifier: 6NC9
Lat/Long: 35-12-07.5870N 077-45-01.9140W
35-12.126450N 077-45.031900W
35.2021075,-77.7505317
(estimated)
Elevation: 30 ft. / 9 m (estimated)
Variation: 07W (1985)
From city: 9 miles SW of KINSTON, NC
Time zone: UTC -5 (UTC -4 during Daylight Saving Time)
Zip code: 28504

Airport Operations

Airport use: Private use. Permission required prior to landing
Activation date: 02/1987
Control tower: no
ARTCC: WASHINGTON CENTER
FSS: RALEIGH FLIGHT SERVICE STATION
Attendance: IREG
Wind indicator: yes
Segmented circle: no

Airport Communications

WX AWOS-3 at ISO (10 nm NE): 132.75 (252-522-2712)
WX AWOS-3PT at GSB (13 nm NW): 317.625
WX AWOS-3 at DPL (17 nm SW): 120.675 (910-296-9688)
WX AWOS-3P at GWW (19 nm NW): 118.975 (919-731-4473)

Nearby radio navigation aids

VOR radial/distance  VOR name  Freq  Var
ISOr228/13.8KINSTON VORTAC117.5005W
EWNr291/35.5NEW BERN VOR/DME113.6008W

 
NDB name  Hdg/Dist  Freq  Var  ID
STALS235/3.627609WIS .. ...
CLINTON075/33.041209WCTZ -.-. - --..
ALWOOD220/35.523009WAQE .- --.- .
CHOCOWINITY248/36.538808WRNW .-. -. .--

Airport Services

Runway Information

Runway 1/19

Dimensions: 3000 x 60 ft. / 914 x 18 m
Surface: turf
RUNWAY 1  RUNWAY 19
Traffic pattern: leftleft
Displaced threshold: no300 ft.
Obstructions: treesroad

Runway 13/31

Dimensions: 1000 x 100 ft. / 305 x 30 m
Surface: turf
RUNWAY 13  RUNWAY 31
Traffic pattern: leftleft

Airport Ownership and Management from official FAA records

Ownership: Privately-owned
Owner: MOSS HILL AIRPORT, INC.
4180 DAVIS HARDY ROAD
KINSTON, NC 28504-7446
Phone 252-569-8161
Manager: ELIZABETH ANN DAVIS
4180 DAVIS HARDY ROAD
KINSTON, NC 28504-7446
Phone 252-569-3956

Airport Operational Statistics

Aircraft based on the field: 6
Single engine airplanes: 6
    

Additional Remarks

FOR CD CTC WASHINGTON ARTCC AT 703-771-3587.

Instrument Procedures

There are no published instrument procedures at 6NC9.

Some nearby airports with instrument procedures:

KISO - Kinston Regional Jetport at Stallings Field (10 nm NE)
KGSB - Seymour Johnson Air Force Base (13 nm NW)
W40 - Mount Olive Municipal Airport (14 nm W)
KDPL - Duplin County Airport (17 nm SW)
KGWW - Wayne Executive Jetport Airport (19 nm NW)
 
Loc | Ops | Rwys | IFR | FBO | Links
Com | Nav | Svcs | Stats | Notes
Area around 6NC9 (Moss Hill Airport)
 
Road maps at: MapQuest Bing Google
 
Aerial photo
No photo
 
Sectional chart

 
Airport distance calculator
Flying to Moss Hill Airport? Find the distance to fly.

From to 6NC9

Sunrise and sunset
Times for 06-Dec-2022
 Local
(UTC-5)
 Zulu
(UTC)
Morning civil twilight06:3811:38
Sunrise07:0612:06
Sunset16:5821:58
Evening civil twilight17:2622:26

Current date and time
Zulu (UTC)  07-Dec-2022 04:56:55
Local (UTC-5)  06-Dec-2022 23:56:55
 
METAR
KISO 
10nm NE 
070435Z AUTO 00000KT 10SM OVC070 17/16 A3026 RMK AO2 T01700164
KGSB 
13nm NW 
070355Z 00000KT 10SM OVC065 17/16 A3023 RMK AO2A SLP240 T01660164 $
KDPL 
16nm SW 
070435Z AUTO 00000KT 4SM HZ SCT002 OVC070 15/ A3027 RMK AO2
KGWW 
19nm NW 
070435Z AUTO 15004KT 10SM BKN065 BKN075 16/16 A3025 RMK AO2 T01580158
TAF
KISO 
10nm NE 
062113Z 0621/0718 VRB06KT P6SM BKN040 FM070600 VRB06KT 3SM BR SCT007 BKN015 FM071400 VRB06KT P6SM BKN025 FM071600 22008KT P6SM SCT035 BKN090 AMD LTD TO CLD VIS AND WIND
KGSB 
13nm NW 
062313Z 0623/0803 VRB06KT 9999 BKN060 QNH3018INS BECMG 0703/0704 VRB06KT 9999 BKN030 BKN050 QNH3023INS BECMG 0705/0706 VRB06KT 6000 BR BKN012 BKN200 QNH3023INS BECMG 0710/0711 24008KT 9999 NSW BKN020 BKN240 QNH3020INS TEMPO 0719/0722 25009KT 8000 -DZ TX19/0623Z TN13/0712Z
NOTAMs
Click for the latest NOTAMs
NOTAMs are issued by the DoD/FAA and will open in a separate window not controlled by AirNav.

 

 
 

Would you like to see your business listed on this page?

 If your business provides an interesting product or service to pilots, flight crews, aircraft, or users of the Moss Hill Airport, you should consider listing it here.  To start the listing process, click on the button below
 
Add a business
 

Other Pages about Moss Hill Airport

Update a link
 
Copyright © AirNav, LLC. All rights reserved. Privacy Policy  Contact